Time;durP1;ratioP1;P1;durP2;ratioP2;P2;SDS_P1;SDS_P2;PMS_P1;PMS_P2;Temp;Humidity;BMP_temperature;BMP_pressure;BME280_temperature;BME280_humidity;BME280_pressure;Samples;Min_cycle;Max_cycle;Signal;HPM_P1;HPM_P2
2022/09/19 00:01:33;;;;;;;9.27;2.23;;;-40.00;99.90;;;;;;5080824;28;20186;-80
2022/09/19 00:04:04;;;;;;;4.10;2.57;;;-40.00;99.90;;;;;;5077687;28;20179;-80
2022/09/19 00:06:32;;;;;;;6.77;2.57;;;-40.00;99.90;;;;;;5083561;28;20209;-80
2022/09/19 00:08:59;;;;;;;8.17;2.40;;;-40.00;99.90;;;;;;5081362;28;20183;-76
2022/09/19 00:11:26;;;;;;;5.80;2.07;;;-40.00;99.90;;;;;;5077405;28;20185;-78
2022/09/19 00:13:53;;;;;;;8.07;2.73;;;-40.00;99.90;;;;;;5077717;28;20206;-79
2022/09/19 00:16:24;;;;;;;5.67;2.83;;;-40.00;99.90;;;;;;5083987;28;20206;-77
2022/09/19 00:18:51;;;;;;;12.33;2.63;;;-40.00;99.90;;;;;;5082386;28;20186;-79
2022/09/19 00:21:30;;;;;;;12.67;3.43;;;-40.00;99.90;;;;;;5077470;28;20228;-78
2022/09/19 00:26:40;;;;;;;11.50;2.73;;;-40.00;99.90;;;;;;5083874;28;20277;-78
2022/09/19 00:29:08;;;;;;;6.60;2.87;;;-40.00;99.90;;;;;;5081268;28;20575;-75
2022/09/19 00:31:34;;;;;;;10.67;2.63;;;-40.00;99.90;;;;;;5083494;28;20183;-77
2022/09/19 00:34:02;;;;;;;7.03;2.30;;;-40.00;99.90;;;;;;5077239;28;20567;-73
2022/09/19 00:36:27;;;;;;;8.53;1.83;;;-40.00;99.90;;;;;;5083166;28;20252;-74
2022/09/19 00:38:53;;;;;;;10.13;2.57;;;-40.00;99.90;;;;;;5080422;28;20216;-74
2022/09/19 00:41:24;;;;;;;5.60;2.37;;;-40.00;99.90;;;;;;5080324;28;20187;-75
2022/09/19 00:43:56;;;;;;;3.57;1.80;;;-40.00;99.90;;;;;;5081356;28;20190;-73
2022/09/19 00:46:24;;;;;;;9.60;2.13;;;-40.00;99.90;;;;;;5081457;28;20191;-75
2022/09/19 00:49:00;;;;;;;12.07;2.60;;;-40.00;99.90;;;;;;5087415;28;20235;-77
2022/09/19 00:51:38;;;;;;;6.60;2.03;;;-40.00;99.90;;;;;;5076377;28;20193;-75
2022/09/19 00:54:11;;;;;;;6.17;1.83;;;-40.00;99.90;;;;;;5076731;28;20211;-74
2022/09/19 00:56:43;;;;;;;7.53;2.73;;;-40.00;99.90;;;;;;5076387;28;20512;-73
2022/09/19 00:59:10;;;;;;;7.17;2.20;;;-40.00;99.90;;;;;;5076282;28;20265;-74
2022/09/19 01:01:36;;;;;;;9.03;2.80;;;-40.00;99.90;;;;;;5076481;28;20190;-77
2022/09/19 01:04:04;;;;;;;7.70;3.30;;;-40.00;99.90;;;;;;5076581;28;20491;-73
2022/09/19 01:06:55;;;;;;;6.20;2.70;;;-40.00;99.90;;;;;;5083909;28;20509;-76
2022/09/19 01:09:36;;;;;;;11.93;3.90;;;-40.00;99.90;;;;;;5081143;28;20221;-70
2022/09/19 01:12:08;;;;;;;3.73;2.53;;;-40.00;99.90;;;;;;5079415;28;20190;-73
2022/09/19 01:14:51;;;;;;;14.30;2.43;;;-40.00;99.90;;;;;;5083031;28;20183;-75
2022/09/19 01:17:25;;;;;;;8.47;2.13;;;-40.00;99.90;;;;;;5076270;28;21064;-74
2022/09/19 01:20:15;;;;;;;8.30;3.03;;;-40.00;99.90;;;;;;5076109;28;20270;-73
2022/09/19 01:23:04;;;;;;;2.87;1.53;;;-40.00;99.90;;;;;;5076836;28;20237;-75
2022/09/19 01:25:53;;;;;;;9.07;3.37;;;-40.00;99.90;;;;;;5082856;28;20260;-78
2022/09/19 01:28:29;;;;;;;12.77;3.90;;;-40.00;99.90;;;;;;5086108;28;20188;-75
2022/09/19 01:31:18;;;;;;;14.97;2.87;;;-40.00;99.90;;;;;;5079302;28;20246;-75
2022/09/19 01:34:12;;;;;;;12.07;3.33;;;-40.00;99.90;;;;;;5075796;28;20664;-78
2022/09/19 01:37:09;;;;;;;8.77;2.77;;;-40.00;99.90;;;;;;5083006;28;20230;-71
2022/09/19 01:39:37;;;;;;;4.60;2.27;;;-40.00;99.90;;;;;;5076585;28;20466;-75
2022/09/19 01:42:03;;;;;;;9.37;3.43;;;-40.00;99.90;;;;;;5079675;28;20183;-74
2022/09/19 01:44:31;;;;;;;7.60;2.00;;;-40.00;99.90;;;;;;5079624;28;20183;-72
2022/09/19 01:47:21;;;;;;;10.60;2.50;;;-40.00;99.90;;;;;;5074770;28;20556;-78
2022/09/19 01:50:05;;;;;;;5.90;2.50;;;-40.00;99.90;;;;;;5075437;28;20172;-75
2022/09/19 01:53:07;;;;;;;5.67;2.87;;;-40.00;99.90;;;;;;5079808;28;20209;-74
2022/09/19 01:55:43;;;;;;;6.90;1.87;;;-40.00;99.90;;;;;;5075296;28;20189;-76
2022/09/19 01:58:19;;;;;;;6.70;2.53;;;-40.00;99.90;;;;;;5080689;28;20165;-75
2022/09/19 02:01:07;;;;;;;7.60;2.87;;;-40.00;99.90;;;;;;5079153;28;20194;-76
2022/09/19 02:03:56;;;;;;;7.37;2.20;;;-40.00;99.90;;;;;;5075347;28;20339;-72
2022/09/19 02:06:49;;;;;;;6.10;2.30;;;-40.00;99.90;;;;;;5077291;28;20191;-72
2022/09/19 02:09:17;;;;;;;3.87;1.67;;;-40.00;99.90;;;;;;5074975;28;20484;-71
2022/09/19 02:11:44;;;;;;;6.70;2.00;;;-40.00;99.90;;;;;;5077141;28;20585;-76
2022/09/19 02:14:18;;;;;;;12.70;2.27;;;-40.00;99.90;;;;;;5083205;28;20296;-80
2022/09/19 02:17:06;;;;;;;9.80;2.80;;;-40.00;99.90;;;;;;5081904;28;20181;-75
2022/09/19 02:19:45;;;;;;;5.77;2.17;;;-40.00;99.90;;;;;;5075613;28;20183;-76
2022/09/19 02:22:21;;;;;;;5.43;1.77;;;-40.00;99.90;;;;;;5075784;28;20275;-69
2022/09/19 02:24:49;;;;;;;5.93;2.00;;;-40.00;99.90;;;;;;5074192;28;20494;-74
2022/09/19 02:27:20;;;;;;;11.50;2.03;;;-40.00;99.90;;;;;;5078530;28;20183;-79
2022/09/19 02:29:52;;;;;;;3.37;2.20;;;-40.00;99.90;;;;;;5074883;28;20296;-79
2022/09/19 02:32:19;;;;;;;7.00;2.53;;;-40.00;99.90;;;;;;5075305;28;20602;-79
2022/09/19 02:34:49;;;;;;;17.03;3.20;;;-40.00;99.90;;;;;;5078905;28;20195;-77
2022/09/19 02:37:26;;;;;;;8.60;2.47;;;-40.00;99.90;;;;;;5081925;28;20601;-73
2022/09/19 02:40:03;;;;;;;6.20;1.87;;;-40.00;99.90;;;;;;5080641;28;20247;-77
2022/09/19 02:42:33;;;;;;;5.07;2.43;;;-40.00;99.90;;;;;;5075635;28;20310;-78
2022/09/19 02:45:17;;;;;;;10.73;2.43;;;-40.00;99.90;;;;;;5075537;28;20218;-75
2022/09/19 02:47:55;;;;;;;7.17;3.33;;;-40.00;99.90;;;;;;5074263;28;20186;-71
2022/09/19 02:50:47;;;;;;;8.67;2.43;;;-40.00;99.90;;;;;;5075098;28;20262;-75
2022/09/19 02:53:19;;;;;;;7.43;2.13;;;-40.00;99.90;;;;;;5076961;28;20216;-74
2022/09/19 02:55:52;;;;;;;6.50;2.37;;;-40.00;99.90;;;;;;5084019;28;20181;-71
2022/09/19 02:58:21;;;;;;;8.00;2.43;;;-40.00;99.90;;;;;;5080073;28;20178;-78
2022/09/19 03:00:53;;;;;;;7.23;2.10;;;-40.00;99.90;;;;;;5085893;28;20199;-73
2022/09/19 03:06:39;;;;;;;12.60;2.23;;;-40.00;99.90;;;;;;5075136;28;20514;-75
2022/09/19 03:09:08;;;;;;;6.17;2.47;;;-40.00;99.90;;;;;;5079997;28;20576;-71
2022/09/19 03:11:36;;;;;;;10.30;2.37;;;-40.00;99.90;;;;;;5078795;28;20482;-74
2022/09/19 03:14:02;;;;;;;9.20;1.70;;;-40.00;99.90;;;;;;5079330;28;20214;-76
2022/09/19 03:16:35;;;;;;;9.27;2.97;;;-40.00;99.90;;;;;;5081285;28;20182;-78
2022/09/19 03:19:05;;;;;;;20.03;2.80;;;-40.00;99.90;;;;;;5085077;28;20512;-76
2022/09/19 03:21:31;;;;;;;6.63;2.67;;;-40.00;99.90;;;;;;5080849;28;20581;-69
2022/09/19 03:24:00;;;;;;;7.70;2.23;;;-40.00;99.90;;;;;;5074522;28;20194;-75
2022/09/19 03:26:34;;;;;;;12.67;2.93;;;-40.00;99.90;;;;;;5079602;28;20201;-70
2022/09/19 03:29:02;;;;;;;6.43;2.30;;;-40.00;99.90;;;;;;5075128;28;20324;-68
2022/09/19 03:31:28;;;;;;;9.90;2.53;;;-40.00;99.90;;;;;;5078208;28;20524;-77
2022/09/19 03:33:58;;;;;;;5.33;2.77;;;-40.00;99.90;;;;;;5080763;28;20209;-78
2022/09/19 03:36:25;;;;;;;3.03;1.87;;;-40.00;99.90;;;;;;5077341;28;20385;-74
2022/09/19 03:38:51;;;;;;;9.57;2.37;;;-40.00;99.90;;;;;;5078103;28;20589;-74
2022/09/19 03:41:19;;;;;;;14.33;2.43;;;-40.00;99.90;;;;;;5077275;28;20189;-73
2022/09/19 03:43:46;;;;;;;5.43;1.60;;;-40.00;99.90;;;;;;5084886;28;20237;-74
2022/09/19 03:46:19;;;;;;;17.53;2.27;;;-40.00;99.90;;;;;;5077975;28;20282;-76
2022/09/19 03:48:46;;;;;;;5.80;1.63;;;-40.00;99.90;;;;;;5083279;28;20194;-77
2022/09/19 03:51:14;;;;;;;8.20;1.63;;;-40.00;99.90;;;;;;5084519;28;20183;-75
2022/09/19 03:53:42;;;;;;;10.07;2.17;;;-40.00;99.90;;;;;;5078032;28;20212;-77
2022/09/19 03:56:10;;;;;;;11.87;2.50;;;-40.00;99.90;;;;;;5080256;28;20642;-73
2022/09/19 03:58:37;;;;;;;7.00;2.40;;;-40.00;99.90;;;;;;5087958;28;20179;-76
2022/09/19 04:01:03;;;;;;;5.93;2.37;;;-40.00;99.90;;;;;;5077518;28;20294;-74
2022/09/19 04:03:30;;;;;;;8.97;2.60;;;-40.00;99.90;;;;;;5081319;28;20208;-75
2022/09/19 04:05:55;;;;;;;5.13;2.23;;;-40.00;99.90;;;;;;5083073;28;20545;-75
2022/09/19 04:08:21;;;;;;;5.67;2.30;;;-40.00;99.90;;;;;;5084788;28;20186;-77
2022/09/19 04:10:47;;;;;;;4.30;2.07;;;-40.00;99.90;;;;;;5084411;28;20193;-79
2022/09/19 04:13:13;;;;;;;5.50;1.40;;;-40.00;99.90;;;;;;5081619;28;20231;-77
2022/09/19 04:15:40;;;;;;;5.23;1.70;;;-40.00;99.90;;;;;;5077637;28;20176;-80
2022/09/19 04:18:06;;;;;;;6.77;2.13;;;-40.00;99.90;;;;;;5081687;28;20515;-77
2022/09/19 04:20:32;;;;;;;2.17;1.80;;;-40.00;99.90;;;;;;5082413;28;20232;-79
2022/09/19 04:23:00;;;;;;;1.83;1.33;;;-40.00;99.90;;;;;;5077532;28;20189;-79
2022/09/19 04:25:32;;;;;;;4.60;2.27;;;-40.00;99.90;;;;;;5077516;28;20208;-71
2022/09/19 04:28:03;;;;;;;10.30;2.13;;;-40.00;99.90;;;;;;5086607;28;20269;-73
2022/09/19 04:30:36;;;;;;;8.40;1.80;;;-40.00;99.90;;;;;;5077661;28;20179;-69
2022/09/19 04:33:03;;;;;;;4.20;2.23;;;-40.00;99.90;;;;;;5076845;28;20211;-69
2022/09/19 04:35:34;;;;;;;10.47;2.87;;;-40.00;99.90;;;;;;5076927;28;20183;-76
2022/09/19 04:38:08;;;;;;;6.60;1.60;;;-40.00;99.90;;;;;;5076332;28;20583;-75
2022/09/19 04:40:42;;;;;;;4.73;1.87;;;-40.00;99.90;;;;;;5077121;28;20173;-73
2022/09/19 04:43:10;;;;;;;4.83;1.70;;;-40.00;99.90;;;;;;5076951;28;20187;-73
2022/09/19 04:45:37;;;;;;;5.20;2.40;;;-40.00;99.90;;;;;;5083391;28;20317;-72
2022/09/19 04:48:06;;;;;;;4.43;2.83;;;-40.00;99.90;;;;;;5085223;28;20187;-74
2022/09/19 04:50:36;;;;;;;9.47;2.70;;;-40.00;99.90;;;;;;5080224;28;20218;-71
2022/09/19 04:53:03;;;;;;;4.70;2.30;;;-40.00;99.90;;;;;;5084227;28;20199;-69
2022/09/19 04:55:29;;;;;;;9.93;1.97;;;-40.00;99.90;;;;;;5078370;28;20174;-68
2022/09/19 04:57:56;;;;;;;9.03;2.83;;;-40.00;99.90;;;;;;5076605;28;20588;-68
2022/09/19 05:00:38;;;;;;;4.97;2.40;;;-40.00;99.90;;;;;;5081881;28;20590;-69
2022/09/19 05:03:11;;;;;;;10.77;2.50;;;-40.00;99.90;;;;;;5079559;28;20222;-71
2022/09/19 05:05:44;;;;;;;3.03;1.87;;;-40.00;99.90;;;;;;5082641;28;20489;-69
2022/09/19 05:08:15;;;;;;;3.53;1.67;;;-40.00;99.90;;;;;;5084323;28;20251;-71
2022/09/19 05:10:42;;;;;;;4.07;1.77;;;-40.00;99.90;;;;;;5085408;28;20288;-68
2022/09/19 05:13:09;;;;;;;6.73;2.20;;;-40.00;99.90;;;;;;5076110;28;20542;-70
2022/09/19 05:15:35;;;;;;;6.90;2.20;;;-40.00;99.90;;;;;;5076381;28;20250;-72
2022/09/19 05:18:00;;;;;;;4.50;2.27;;;-40.00;99.90;;;;;;5082208;28;20185;-75
2022/09/19 05:20:26;;;;;;;3.07;2.20;;;-40.00;99.90;;;;;;5079435;28;20178;-74
2022/09/19 05:22:58;;;;;;;5.33;2.03;;;-40.00;99.90;;;;;;5081957;28;20189;-78
2022/09/19 05:25:26;;;;;;;5.93;2.13;;;-40.00;99.90;;;;;;5079343;28;20179;-81
2022/09/19 05:27:53;;;;;;;8.17;2.40;;;-40.00;99.90;;;;;;5076008;28;20629;-76
2022/09/19 05:30:21;;;;;;;3.80;1.60;;;-40.00;99.90;;;;;;5075956;28;20202;-69
2022/09/19 05:32:47;;;;;;;4.27;2.00;;;-40.00;99.90;;;;;;5076167;28;20234;-68
2022/09/19 05:35:13;;;;;;;7.67;2.50;;;-40.00;99.90;;;;;;5080099;28;20514;-70
2022/09/19 05:37:41;;;;;;;7.00;2.60;;;-40.00;99.90;;;;;;5081872;28;20188;-69
2022/09/19 05:40:07;;;;;;;8.57;2.60;;;-40.00;99.90;;;;;;5079411;28;20185;-69
2022/09/19 05:42:34;;;;;;;2.37;2.17;;;-40.00;99.90;;;;;;5075632;28;20183;-72
2022/09/19 05:45:00;;;;;;;6.00;2.70;;;-40.00;99.90;;;;;;5074993;28;20181;-67
2022/09/19 05:47:26;;;;;;;2.90;2.20;;;-40.00;99.90;;;;;;5079074;28;20766;-68
2022/09/19 05:49:51;;;;;;;8.70;2.37;;;-40.00;99.90;;;;;;5079850;28;20202;-71
2022/09/19 05:55:01;;;;;;;5.83;2.87;;;-40.00;99.90;;;;;;5059955;28;20198;-70
2022/09/19 05:57:27;;;;;;;6.60;2.50;;;-40.00;99.90;;;;;;5082491;28;20176;-68
2022/09/19 05:59:54;;;;;;;4.47;2.50;;;-40.00;99.90;;;;;;5086242;28;20283;-67
2022/09/19 06:02:20;;;;;;;6.17;2.67;;;-40.00;99.90;;;;;;5087513;28;20190;-69
2022/09/19 06:04:46;;;;;;;4.17;3.07;;;-40.00;99.90;;;;;;5085024;28;20207;-70
2022/09/19 06:07:12;;;;;;;6.97;2.30;;;-40.00;99.90;;;;;;5083779;28;20229;-67
2022/09/19 06:09:37;;;;;;;4.73;2.67;;;-40.00;99.90;;;;;;5075335;28;20177;-71
2022/09/19 06:12:03;;;;;;;3.97;1.93;;;-40.00;99.90;;;;;;5075332;28;20191;-68
2022/09/19 06:14:30;;;;;;;5.30;2.20;;;-40.00;99.90;;;;;;5075388;28;20527;-69
2022/09/19 06:16:56;;;;;;;6.77;2.17;;;-40.00;99.90;;;;;;5081707;28;20179;-68
2022/09/19 06:19:22;;;;;;;4.63;2.57;;;-40.00;99.90;;;;;;5081761;28;20240;-75
2022/09/19 06:21:47;;;;;;;6.90;3.47;;;-40.00;99.90;;;;;;5081447;28;20208;-73
2022/09/19 06:24:13;;;;;;;4.93;2.80;;;-40.00;99.90;;;;;;5077094;28;20186;-70
2022/09/19 06:26:39;;;;;;;6.40;2.77;;;-40.00;99.90;;;;;;5080128;28;20183;-69
2022/09/19 06:29:06;;;;;;;7.40;2.87;;;-40.00;99.90;;;;;;5078516;28;20187;-69
2022/09/19 06:31:32;;;;;;;11.20;3.00;;;-40.00;99.90;;;;;;5078497;28;20188;-67
2022/09/19 06:33:58;;;;;;;8.47;2.43;;;-40.00;99.90;;;;;;5073651;28;20219;-67
2022/09/19 06:36:25;;;;;;;12.23;3.67;;;-40.00;99.90;;;;;;5081037;28;20183;-69
2022/09/19 06:38:50;;;;;;;2.83;2.50;;;-40.00;99.90;;;;;;5078754;28;20495;-69
2022/09/19 06:41:16;;;;;;;5.20;2.93;;;-40.00;99.90;;;;;;5075013;28;20189;-68
2022/09/19 06:43:42;;;;;;;7.77;2.47;;;-40.00;99.90;;;;;;5082138;28;20188;-68
2022/09/19 06:46:10;;;;;;;12.43;4.03;;;-40.00;99.90;;;;;;5078331;28;20277;-72
2022/09/19 06:48:36;;;;;;;8.50;2.70;;;-40.00;99.90;;;;;;5076868;28;20201;-71
2022/09/19 06:51:02;;;;;;;9.93;4.63;;;-40.00;99.90;;;;;;5075394;28;20197;-70
2022/09/19 06:53:28;;;;;;;18.00;6.90;;;-40.00;99.90;;;;;;5081725;28;20248;-73
2022/09/19 06:55:56;;;;;;;14.73;7.50;;;-40.00;99.90;;;;;;5083597;28;20277;-76
2022/09/19 06:58:21;;;;;;;12.03;5.67;;;-40.00;99.90;;;;;;5086838;28;20190;-72
2022/09/19 07:00:47;;;;;;;15.33;4.30;;;-40.00;99.90;;;;;;5082235;28;20201;-85
2022/09/19 07:03:15;;;;;;;20.87;17.63;;;-40.00;99.90;;;;;;5082504;28;20194;-71
2022/09/19 07:05:47;;;;;;;11.93;5.27;;;-40.00;99.90;;;;;;5084092;28;20282;-69
2022/09/19 07:08:13;;;;;;;13.37;5.00;;;-40.00;99.90;;;;;;5081722;28;20216;-69
2022/09/19 07:10:40;;;;;;;11.27;3.40;;;-40.00;99.90;;;;;;5085816;28;20186;-69
2022/09/19 07:13:06;;;;;;;11.13;3.53;;;-40.00;99.90;;;;;;5085074;28;20214;-69
2022/09/19 07:15:36;;;;;;;7.87;2.73;;;-40.00;99.90;;;;;;5082036;28;20186;-69
2022/09/19 07:18:07;;;;;;;5.60;2.63;;;-40.00;99.90;;;;;;5079408;28;20245;-68
2022/09/19 07:20:34;;;;;;;7.10;3.60;;;-40.00;99.90;;;;;;5089704;28;20183;-69
2022/09/19 07:23:20;;;;;;;10.83;2.90;;;-40.00;99.90;;;;;;5079304;28;20265;-69
2022/09/19 07:25:48;;;;;;;9.37;3.20;;;-40.00;99.90;;;;;;5083032;28;20245;-69
2022/09/19 07:28:16;;;;;;;9.27;2.50;;;-40.00;99.90;;;;;;5078922;28;20186;-68
2022/09/19 07:30:43;;;;;;;8.47;2.60;;;-40.00;99.90;;;;;;5084912;28;20218;-69
2022/09/19 07:33:12;;;;;;;15.97;3.73;;;-40.00;99.90;;;;;;5078073;28;20262;-72
2022/09/19 07:35:41;;;;;;;10.90;3.17;;;-40.00;99.90;;;;;;5081721;28;20257;-69
2022/09/19 07:38:11;;;;;;;10.37;2.57;;;-40.00;99.90;;;;;;5083909;28;20186;-69
2022/09/19 07:40:37;;;;;;;8.03;2.90;;;-40.00;99.90;;;;;;5084903;28;20183;-68
2022/09/19 07:43:04;;;;;;;6.93;2.93;;;-40.00;99.90;;;;;;5083668;28;20186;-67
2022/09/19 07:45:33;;;;;;;11.23;3.40;;;-40.00;99.90;;;;;;5077326;28;20179;-75
2022/09/19 07:47:59;;;;;;;9.20;2.80;;;-40.00;99.90;;;;;;5078031;28;20183;-84
2022/09/19 07:50:25;;;;;;;11.23;3.40;;;-40.00;99.90;;;;;;5083129;28;20195;-70
2022/09/19 07:53:05;;;;;;;8.50;2.90;;;-40.00;99.90;;;;;;5076580;28;20261;-72
2022/09/19 07:55:32;;;;;;;7.03;2.77;;;-40.00;99.90;;;;;;5079864;28;20216;-76
2022/09/19 07:57:59;;;;;;;6.97;2.73;;;-40.00;99.90;;;;;;5078939;28;20175;-71
2022/09/19 08:00:29;;;;;;;13.87;3.50;;;-40.00;99.90;;;;;;5082922;28;20215;-82
2022/09/19 08:03:00;;;;;;;7.93;3.07;;;-40.00;99.90;;;;;;5089304;28;20179;-71
2022/09/19 08:05:28;;;;;;;9.70;2.83;;;-40.00;99.90;;;;;;5083660;28;20483;-73
2022/09/19 08:07:55;;;;;;;11.70;3.73;;;-40.00;99.90;;;;;;5078292;28;20564;-70
2022/09/19 08:10:21;;;;;;;24.47;4.40;;;-40.00;99.90;;;;;;5082679;28;20266;-69
2022/09/19 08:12:48;;;;;;;14.13;3.27;;;-40.00;99.90;;;;;;5087655;28;20218;-69
2022/09/19 08:15:18;;;;;;;7.10;3.07;;;-40.00;99.90;;;;;;5084948;28;20190;-71
2022/09/19 08:17:57;;;;;;;13.00;3.23;;;-40.00;99.90;;;;;;5082256;28;20258;-69
2022/09/19 08:20:23;;;;;;;11.63;2.97;;;-40.00;99.90;;;;;;5077301;28;20266;-69
2022/09/19 08:22:49;;;;;;;9.23;2.57;;;-40.00;99.90;;;;;;5082239;28;20180;-68
2022/09/19 08:25:15;;;;;;;4.33;2.07;;;-40.00;99.90;;;;;;5075596;28;20182;-70
2022/09/19 08:27:44;;;;;;;3.40;2.23;;;-40.00;99.90;;;;;;5076564;28;20472;-71
2022/09/19 08:30:10;;;;;;;10.77;3.13;;;-40.00;99.90;;;;;;5084339;28;20276;-77
2022/09/19 08:32:36;;;;;;;10.47;2.93;;;-40.00;99.90;;;;;;5080715;28;20301;-69
2022/09/19 08:35:02;;;;;;;15.00;3.37;;;-40.00;99.90;;;;;;5081049;28;20222;-69
2022/09/19 08:37:30;;;;;;;8.00;2.57;;;-40.00;99.90;;;;;;5075867;28;20186;-70
2022/09/19 08:43:11;;;;;;;7.00;3.10;;;-40.00;99.90;;;;;;5076469;28;20270;-73
2022/09/19 08:45:55;;;;;;;10.23;3.27;;;-40.00;99.90;;;;;;5074548;28;20194;-70
2022/09/19 08:48:45;;;;;;;10.33;2.73;;;-40.00;99.90;;;;;;5076697;28;20225;-71
2022/09/19 08:51:26;;;;;;;7.57;2.57;;;-40.00;99.90;;;;;;5059385;28;20217;-69
2022/09/19 08:54:02;;;;;;;14.37;3.43;;;-40.00;99.90;;;;;;5083559;28;20202;-68
2022/09/19 08:56:29;;;;;;;14.17;2.73;;;-40.00;99.90;;;;;;5079762;28;20485;-73
2022/09/19 08:59:02;;;;;;;10.33;2.77;;;-40.00;99.90;;;;;;5081001;28;20174;-68
2022/09/19 09:01:34;;;;;;;15.17;3.70;;;-40.00;99.90;;;;;;5076560;28;20181;-71
2022/09/19 09:04:20;;;;;;;7.77;2.83;;;-40.00;99.90;;;;;;5076597;28;20191;-68
2022/09/19 09:06:52;;;;;;;9.60;2.63;;;-40.00;99.90;;;;;;5083426;28;20182;-70
2022/09/19 09:09:34;;;;;;;6.77;2.67;;;-40.00;99.90;;;;;;5083224;28;20475;-69
2022/09/19 09:12:58;;;;;;;14.27;3.13;;;-40.00;99.90;;;;;;5086273;28;20186;-70
2022/09/19 09:15:49;;;;;;;9.17;2.73;;;-40.00;99.90;;;;;;5052244;28;20207;-73
2022/09/19 09:18:48;;;;;;;5.23;1.90;;;-40.00;99.90;;;;;;5085992;28;20590;-71
2022/09/19 09:21:25;;;;;;;14.03;3.03;;;-40.00;99.90;;;;;;5075241;28;20190;-69
2022/09/19 09:24:22;;;;;;;21.43;3.50;;;-40.00;99.90;;;;;;5077199;28;20253;-70
2022/09/19 09:26:52;;;;;;;13.67;4.10;;;-40.00;99.90;;;;;;5078769;28;20191;-70
2022/09/19 09:29:40;;;;;;;4.13;2.77;;;-40.00;99.90;;;;;;5082046;28;20198;-69
2022/09/19 09:32:26;;;;;;;8.03;3.13;;;-40.00;99.90;;;;;;5076753;28;20175;-72
2022/09/19 09:35:04;;;;;;;7.87;2.80;;;-40.00;99.90;;;;;;5076681;28;20220;-72
2022/09/19 09:37:54;;;;;;;2.50;1.77;;;-40.00;99.90;;;;;;5075243;28;20203;-71
2022/09/19 09:43:14;;;;;;;12.67;2.87;;;-40.00;99.90;;;;;;5082173;28;20252;-70
2022/09/19 09:45:49;;;;;;;6.60;2.57;;;-40.00;99.90;;;;;;5082748;28;20609;-70
2022/09/19 09:48:38;;;;;;;7.60;3.37;;;-40.00;99.90;;;;;;5079803;28;20232;-69
2022/09/19 09:51:28;;;;;;;11.63;2.77;;;-40.00;99.90;;;;;;5079816;28;20183;-71
2022/09/19 09:56:14;;;;;;;10.67;3.20;;;-40.00;99.90;;;;;;5075110;28;20207;-70
2022/09/19 09:57:09;;;;;;;5.97;2.57;;;-40.00;99.90;;;;;;5081368;28;20636;-69
2022/09/19 10:05:48;;;;;;;9.03;2.43;;;-40.00;99.90;;;;;;5077507;28;20543;-69
2022/09/19 10:08:44;;;;;;;14.17;2.63;;;-40.00;99.90;;;;;;5074697;28;20182;-71
2022/09/19 10:11:42;;;;;;;10.00;2.93;;;-40.00;99.90;;;;;;5084707;28;20178;-70
2022/09/19 10:14:21;;;;;;;7.90;2.00;;;-40.00;99.90;;;;;;5069233;28;20207;-73
2022/09/19 10:16:52;;;;;;;10.33;1.80;;;-40.00;99.90;;;;;;5075137;28;20293;-70
2022/09/19 10:19:33;;;;;;;5.77;2.53;;;-40.00;99.90;;;;;;5075189;28;20171;-70
2022/09/19 10:21:59;;;;;;;5.83;2.40;;;-40.00;99.90;;;;;;5075159;28;20583;-70
2022/09/19 10:24:55;;;;;;;5.23;1.90;;;-40.00;99.90;;;;;;5075331;28;20622;-70
2022/09/19 10:27:39;;;;;;;6.30;1.67;;;-40.00;99.90;;;;;;5074861;28;20270;-69
2022/09/19 10:30:18;;;;;;;6.30;2.43;;;-40.00;99.90;;;;;;5078863;28;20606;-71
2022/09/19 10:32:45;;;;;;;3.03;1.63;;;-40.00;99.90;;;;;;5082662;28;20203;-70
2022/09/19 10:35:33;;;;;;;6.90;2.90;;;-40.00;99.90;;;;;;5086424;28;20644;-75
2022/09/19 10:38:18;;;;;;;7.33;2.33;;;-40.00;99.90;;;;;;5082638;28;20179;-82
2022/09/19 10:40:55;;;;;;;8.17;2.93;;;-40.00;99.90;;;;;;5073927;28;20186;-76
2022/09/19 10:43:31;;;;;;;11.47;2.67;;;-40.00;99.90;;;;;;5074991;28;20171;-76
2022/09/19 10:46:05;;;;;;;7.30;1.93;;;-40.00;99.90;;;;;;5081397;28;20187;-79
2022/09/19 10:48:33;;;;;;;5.20;2.07;;;-40.00;99.90;;;;;;5086169;28;20174;-75
2022/09/19 10:51:06;;;;;;;14.57;2.87;;;-40.00;99.90;;;;;;5087804;28;20535;-71
2022/09/19 10:53:33;;;;;;;15.73;3.27;;;-40.00;99.90;;;;;;5083997;28;20488;-78
2022/09/19 10:56:10;;;;;;;6.43;2.00;;;-40.00;99.70;;;;;;5077030;28;20473;-73
2022/09/19 10:58:41;;;;;;;6.80;1.80;;;-40.00;99.90;;;;;;5079214;28;20270;-70
2022/09/19 11:01:22;;;;;;;5.97;1.80;;;-40.00;99.90;;;;;;5078311;28;20304;-69
2022/09/19 11:04:04;;;;;;;8.17;2.10;;;-40.00;99.90;;;;;;5086908;28;20183;-77
2022/09/19 11:06:32;;;;;;;4.77;1.60;;;-40.00;99.90;;;;;;5077913;28;20175;-70
2022/09/19 11:08:59;;;;;;;7.97;2.07;;;-40.00;99.90;;;;;;5078610;28;20179;-76
2022/09/19 11:11:33;;;;;;;12.87;2.97;;;-40.00;99.90;;;;;;5082972;28;20191;-70
2022/09/19 11:14:16;;;;;;;4.20;2.03;;;-40.00;99.90;;;;;;5078524;28;20598;-73
2022/09/19 11:17:00;;;;;;;9.47;2.50;;;-40.00;99.90;;;;;;5088189;28;20253;-70
2022/09/19 11:19:38;;;;;;;10.47;2.60;;;-40.00;99.90;;;;;;5084000;28;20267;-78
2022/09/19 11:22:15;;;;;;;4.27;1.97;;;-40.00;99.90;;;;;;5077648;28;20174;-76
2022/09/19 11:25:07;;;;;;;8.03;2.00;;;-40.00;99.90;;;;;;5084513;28;20188;-74
2022/09/19 11:27:44;;;;;;;6.03;2.93;;;-40.00;99.90;;;;;;5089573;28;20182;-76
2022/09/19 11:30:18;;;;;;;4.27;2.13;;;-40.00;99.90;;;;;;5077928;28;20663;-74
2022/09/19 11:32:57;;;;;;;6.53;2.43;;;-40.00;99.90;;;;;;5084877;28;20209;-73
2022/09/19 11:35:37;;;;;;;6.83;2.10;;;-40.00;99.90;;;;;;5087003;28;20181;-72
2022/09/19 11:38:19;;;;;;;7.90;2.53;;;-40.00;99.90;;;;;;5077923;28;20874;-69
2022/09/19 11:41:06;;;;;;;5.27;2.40;;;-40.00;99.90;;;;;;5077527;28;20614;-71
2022/09/19 11:44:16;;;;;;;6.10;2.13;;;-40.00;99.90;;;;;;5076670;28;20175;-69
2022/09/19 11:46:49;;;;;;;10.37;1.83;;;-40.00;99.90;;;;;;5080802;28;20214;-70
2022/09/19 11:49:47;;;;;;;5.27;2.13;;;-40.00;99.90;;;;;;5082310;28;20491;-69
2022/09/19 11:52:15;;;;;;;4.33;2.07;;;-40.00;99.90;;;;;;5076585;28;20676;-75
2022/09/19 11:55:01;;;;;;;15.80;1.80;;;-40.00;99.90;;;;;;5086026;28;20234;-75
2022/09/19 11:57:48;;;;;;;2.93;2.03;;;-40.00;99.90;;;;;;5077233;28;20175;-77
2022/09/19 12:00:20;;;;;;;3.53;1.37;;;-40.00;99.90;;;;;;5083644;28;20309;-70
2022/09/19 12:02:58;;;;;;;7.87;1.90;;;-40.00;99.90;;;;;;5081358;28;20266;-71
2022/09/19 12:05:44;;;;;;;8.03;2.07;;;-40.00;99.90;;;;;;5086734;28;20199;-72
2022/09/19 12:08:48;;;;;;;7.53;2.17;;;-40.00;99.90;;;;;;5081660;28;20268;-74
2022/09/19 12:11:21;;;;;;;8.23;1.67;;;-40.00;99.90;;;;;;5064679;28;20194;-76
2022/09/19 12:14:04;;;;;;;7.53;2.33;;;-40.00;99.90;;;;;;5077735;28;20215;-73
2022/09/19 12:16:40;;;;;;;3.83;2.13;;;-40.00;99.90;;;;;;5076710;28;20308;-74
2022/09/19 12:19:21;;;;;;;3.97;1.30;;;-40.00;99.90;;;;;;5082397;28;20202;-70
2022/09/19 12:22:00;;;;;;;2.90;1.03;;;-40.00;96.90;;;;;;5080323;28;20613;-76
2022/09/19 12:24:52;;;;;;;5.80;1.70;;;-40.00;94.70;;;;;;5082217;28;20191;-75
2022/09/19 12:27:47;;;;;;;4.07;1.13;;;-40.00;92.70;;;;;;5082299;28;20582;-75
2022/09/19 12:30:18;;;;;;;4.30;1.80;;;-40.00;91.50;;;;;;5081912;28;20203;-73
2022/09/19 12:33:04;;;;;;;6.97;1.67;;;20.50;99.90;;;;;;5075244;28;20581;-77
2022/09/19 12:35:45;;;;;;;6.63;1.37;;;20.70;99.90;;;;;;5079386;28;20493;-78
2022/09/19 12:38:29;;;;;;;4.73;1.87;;;20.30;99.90;;;;;;5082182;28;20214;-75
2022/09/19 12:41:17;;;;;;;5.70;1.90;;;19.70;99.90;;;;;;5079914;28;20586;-70
2022/09/19 12:43:52;;;;;;;4.67;2.27;;;18.40;99.90;;;;;;5084113;28;20304;-72
2022/09/19 12:46:42;;;;;;;4.17;1.40;;;-40.00;99.90;;;;;;5075363;28;20488;-68
2022/09/19 12:49:23;;;;;;;5.60;2.20;;;-40.00;99.90;;;;;;5087033;28;20191;-79
2022/09/19 12:52:00;;;;;;;4.83;1.73;;;-40.00;99.90;;;;;;5083463;28;20879;-80
2022/09/19 12:54:46;;;;;;;5.23;1.70;;;-40.00;99.90;;;;;;5079542;28;20198;-75
2022/09/19 12:57:36;;;;;;;3.23;1.90;;;-40.00;99.90;;;;;;5075390;28;20241;-72
2022/09/19 13:00:03;;;;;;;8.93;2.23;;;-40.00;99.90;;;;;;5073343;28;20626;-74
2022/09/19 13:02:43;;;;;;;3.37;1.10;;;-40.00;99.90;;;;;;5080606;28;20495;-81
2022/09/19 13:05:22;;;;;;;2.20;1.30;;;-40.00;97.50;;;;;;5081609;28;20183;-75
2022/09/19 13:08:09;;;;;;;6.80;1.77;;;-40.00;94.00;;;;;;5076386;28;20202;-78
2022/09/19 13:10:36;;;;;;;3.97;1.53;;;-40.00;90.10;;;;;;5088156;28;20191;-77
2022/09/19 13:13:28;;;;;;;3.40;1.20;;;20.20;99.90;;;;;;5082305;28;20257;-66
2022/09/19 13:16:05;;;;;;;5.87;1.80;;;20.40;99.90;;;;;;5077133;28;20228;-76
2022/09/19 13:24:12;;;;;;;7.10;2.33;;;16.50;99.90;;;;;;5076504;28;20252;-68
2022/09/19 13:26:39;;;;;;;12.10;1.20;;;18.60;99.90;;;;;;5079777;28;20187;-84
2022/09/19 13:29:28;;;;;;;6.00;1.57;;;18.90;99.90;;;;;;5081293;28;20187;-71
2022/09/19 13:31:56;;;;;;;3.67;1.17;;;20.40;99.90;;;;;;5075483;28;20191;-71
2022/09/19 13:34:34;;;;;;;6.67;1.00;;;-0.20;91.00;;;;;;5075885;28;20264;-68
2022/09/19 13:37:04;;;;;;;5.90;1.90;;;-40.00;58.90;;;;;;5075650;28;20590;-69